Logo AVAMET
Benvolgut visitant, si us plau, ingressa Recuperar contrasenya

Dénia Montgó

Dades diàries. Acumulats / Últims 30 dies disponibles

Data Temperatura (°C) Humitat rel. (%) Pressió rel. (hPa) Vent (km/h) Precipitació
Mínima Mitjana Màxima Amplitud
tèrmica
Mínima Mitjana Màxima Mínima Mitjana Màxima Predom. Mitjana Ràfega
màxima
Total
(mm)
Índex-n
Mínima Mitjana Màxima Mínima Mitjana Màxima n
0 a 1
P0 max
mm 5'
Dades mensuals acumulades fins l'últim dia disponible
01/2020 8,9 10,6 12,3 12,7 11,7 14,9 18,4 9,5 35 75 97 1.020 1.026 1.033   6,9 44,4 6,3
Dades anuals acumulades fins l'últim dia disponible
2020 8,9 10,6 12,3 12,7 11,7 14,9 18,4 9,5 35 75 97 1.020 1.026 1.033   6,9 44,4 6,3
Últims 30 dies disponibles
18-01-2020 12,3     14,5     17,0 4,7 51 64 77 1.020 1.027 1.032 SSE 9,2 37,0 0,0
17-01-2020 12,3     15,8     18,4 6,1 35 59 83 1.027 1.028 1.032 OSO 11,2 44,4 0,0
16-01-2020 12,3     15,2     17,1 4,8 52 67 81 1.026 1.027 1.029 SSE 8,6 35,1 0,0
15-01-2020 12,1     14,9     17,8 5,7 45 55 65 1.023 1.025 1.027 SSO 9,9 35,1 0,0
14-01-2020 10,3     12,4     14,5 4,2 41 57 72 1.021 1.022 1.023 SSE 7,3 35,1 0,0
13-01-2020 9,1     12,1     15,6 6,5 44 62 80 1.022 1.025 1.029 SSE 7,7 29,6 0,0
12-01-2020 8,9     10,5     12,3 3,4 60 73 86 1.028 1.029 1.031 SE 5,8 25,9 0,0
11-01-2020 9,0     11,0     12,8 3,8 69 77 84 1.028 1.030 1.031 ENE 6,1 25,9 0,0
10-01-2020 10,4     12,0     13,6 3,2 64 81 97 1.023 1.026 1.028 NNE 15,2 38,9 5,1 0,32 0,50
08-01-2020 11,9     14,5     18,3 6,4 55 71 87 1.027 1.022 1.031 N 5,4 22,2 0,0
07-01-2020         15,4 15,4 76 86 95 1.028 1.023 1.032 N 2,5 11,1 0,0
06-01-2020 11,8     13,1     14,7 2,9 88 92 96 1.028 1.022 1.032 N 4,5 27,8 0,0
05-01-2020 11,6     13,0     15,2 3,6 80 87 94 1.027 1.016 1.031 N 6,5 24,1 0,5
04-01-2020 9,9     11,5     13,8 3,9 59 76 93 1.031 1.032 1.033 SSE 4,5 12,9 0,0
03-01-2020 9,4     10,3     11,7 2,3 90 94 97 1.029 1.030 1.032 SSE 3,4 11,1 0,5
02-01-2020 9,1     10,8     12,8 3,7 76 86 96 1.029 1.031 1.032 SE 5,4 44,4 0,2
01-01-2020 9,8     10,9     12,6 2,8 76 86 96 1.030 1.031 1.033 SE 4,1 16,6 0,0
31-12-2019 9,3     11,3     12,9 3,6 80 86 92 1.031 1.032 1.034 SSE 5,2 31,4 0,0
30-12-2019 10,4     11,5     12,7 2,3 76 85 94 1.031 1.032 1.034 SE 4,3 18,5 0,0
29-12-2019 10,2     11,2     12,8 2,6 80 88 95 1.030 1.031 1.033 ESE 4,0 25,9 0,0
28-12-2019 10,8     12,4     15,3 4,5 77 88 98 1.028 1.029 1.031 S 4,9 14,8 0,0
27-12-2019 11,9     14,4     17,8 5,9 61 79 96 1.027 1.028 1.030 SE 3,7 18,5 0,0
26-12-2019 14,1     17,4     22,0 7,9 36 55 74 1.021 1.024 1.029 ESE 4,3 24,1 0,0
25-12-2019 14,8     17,0     19,1 4,3 55 67 79 1.022 1.024 1.026 SE 3,3 12,9 0,0
24-12-2019 17,0     19,8     21,7 4,7 43 51 58 1.025 1.026 1.028 S 7,0 24,1 0,0
23-12-2019 14,7     17,8     21,3 6,6 36 50 63 1.019 1.024 1.027 SO 9,1 40,7 0,0
22-12-2019 16,4     18,4     21,2 4,8 44 51 58 1.008 1.014 1.019 SO 17,3 61,0 0,0
21-12-2019 18,8     21,9     24,4 5,6 34 54 73 1.001 1.004 1.008 SSO 21,5 88,8 0,0
20-12-2019 16,3     18,5     21,9 5,6 53 65 77 1.001 1.003 1.008 SO 21,7 77,7 0,0
19-12-2019 12,6     15,3     18,2 5,6 44 59 74 1.008 1.014 1.019 SSE 11,0 51,8 0,0
Últims 13 mesos disponibles
12/2019 6,8 12,8 18,8 15,1 12,7 17,6 24,4 17,6 47 69 95 946 1.017 1.032 SO 9,6 88,8 64,7
11/2019 8,0 13,7 22,1 16,2 13,9 18,9 26,3 18,3 47 58 76 999 1.011 1.018 OSO 13,2 62,9 10,5
10/2019 12,9 18,6 22,6 21,0 16,9 23,8 31,6 18,7 44 69 89 945 1.014 1.021 SE 8,5 53,6 85,4
09/2019 14,1 21,2 24,5 24,1 22,3 27,1 33,9 19,8 54 76 99 946 1.012 1.023 E 7,8 61,0 234,6
08/2019 19,7 23,7 26,3 26,8 25,7 30,7 37,0 17,3 59 69 84 951 1.013 1.019 SE 9,8 66,6 50,4
07/2019 22,4 23,7 26,8 26,8 27,4 30,5 38,7 16,3 50 68 86 1.006 1.014 1.021 NNE 10,1 72,2 1,5
06/2019 14,8 19,1 24,4 22,6 20,4 26,5 34,2 19,4 38 65 88 1.008 1.015 1.021 SE 10,9 70,3 1,0
05/2019 10,8 15,7 22,4 18,9 17,3 22,5 29,2 18,4 42 67 84 1.005 1.015 1.024 ESE 11,1 68,5 10,3
04/2019 7,9 11,8 14,8 14,7 13,9 18,5 26,7 18,8 37 69 97 945 1.014 1.027 OSO 10,3 66,6 291,8
03/2019 7,9 12,1 15,4 15,3 12,9 18,5 26,8 18,9 20 62 91 1.009 1.022 1.029 SSE 9,7 62,9 40,0
02/2019 7,2 10,4 13,4 13,5 11,9 16,6 23,1 15,9 37 66 88 995 1.024 1.032 ESE 8,7 68,5 0,0
01/2019 5,9 10,5 14,1 12,8 9,9 15,5 20,7 14,8 38 59 83 1.003 1.018 1.029 SSE 9,4 70,3 5,2
12/2018 8,2 12,4 16,2 14,8 12,5 17,8 22,7 14,5 42 67 92 1.008 1.024 1.029 SSE 6,8 62,9 29,6
Tots els anys disponibles
2019 5,9 16,1 26,8 19,0 9,9 22,2 38,7 32,8 20 66 99 945 1.016 1.032 SE 9,9 88,8 795,4
2018 4,2 16,3 27,3 18,9 7,3 22,0 35,8 31,6 39 69 98 992 1.015 1.033 SE 10,6 81,4 556,8
2017 0,6 16,0 26,4 19,1 8,6 22,4 36,1 35,5 35 69 97 997 1.017 1.034 SE 3,4 83,0 685,3
Temperatura (°C)
Humitat relativa (%)
Velocitat del vent i ràfega màxima (km/h)
Direcció del vent (°)
Pressió (hPa)
Precipitació (mm)
Nota sobre les dades: s'avisa a l'usuari de la provisionalitat i no oficialitat d'aquestes dades
Logo AVAMET blanc
Web allotjada a Sollutia
Llicència de Creative CommonsLa web d'AVAMET i els seus continguts estan subjectes a una llicència de
Reconeixement - No Comercial - Compartir igual
Últimes estacions: Xixona - Els Ameradors (Soci), Agres - El Tossal (Soci), Xàbia - Bevenguts (MeteoXàbia), Llíria (Aj. Soci/Inforatge), Orihuela - Lo Capitán, Cox & Guardamar del Segura - horta (Meteorihuela), l'Alcúdia - Carriona & el Real de Gandia (Inforatge), Benicàssim - les Vil·les (Soci),  l'Alfàs del Pi - l'Albir (Soci), - - -